sensor_id;sensor_type;location;lat;lon;timestamp;temperature;humidity
25716;DHT22;13573;50.936;4.328;2022-10-16T00:01:08;14.60;99.90
25716;DHT22;13573;50.936;4.328;2022-10-16T00:03:38;14.40;99.90
25716;DHT22;13573;50.936;4.328;2022-10-16T00:11:18;14.40;99.90
25716;DHT22;13573;50.936;4.328;2022-10-16T00:13:47;14.20;99.90
25716;DHT22;13573;50.936;4.328;2022-10-16T00:16:15;15.70;99.90
25716;DHT22;13573;50.936;4.328;2022-10-16T00:28:37;15.00;99.90
25716;DHT22;13573;50.936;4.328;2022-10-16T00:31:08;14.40;99.90
25716;DHT22;13573;50.936;4.328;2022-10-16T00:36:03;14.20;99.90
25716;DHT22;13573;50.936;4.328;2022-10-16T00:38:31;14.30;99.90
25716;DHT22;13573;50.936;4.328;2022-10-16T00:40:59;15.30;99.90
25716;DHT22;13573;50.936;4.328;2022-10-16T00:43:35;14.10;99.90
25716;DHT22;13573;50.936;4.328;2022-10-16T00:46:03;14.00;99.90
25716;DHT22;13573;50.936;4.328;2022-10-16T00:50:59;14.10;99.90
25716;DHT22;13573;50.936;4.328;2022-10-16T00:53:27;14.40;99.90
25716;DHT22;13573;50.936;4.328;2022-10-16T00:58:23;14.10;99.90
25716;DHT22;13573;50.936;4.328;2022-10-16T01:00:49;15.20;99.90
25716;DHT22;13573;50.936;4.328;2022-10-16T01:06:21;14.30;99.90
25716;DHT22;13573;50.936;4.328;2022-10-16T01:09:35;14.30;99.90
25716;DHT22;13573;50.936;4.328;2022-10-16T01:14:27;14.30;99.90
25716;DHT22;13573;50.936;4.328;2022-10-16T01:16:59;15.40;99.90
25716;DHT22;13573;50.936;4.328;2022-10-16T01:22:14;14.40;99.90
25716;DHT22;13573;50.936;4.328;2022-10-16T01:24:48;14.10;99.90
25716;DHT22;13573;50.936;4.328;2022-10-16T01:27:24;14.10;99.90
25716;DHT22;13573;50.936;4.328;2022-10-16T01:32:33;14.20;99.90
25716;DHT22;13573;50.936;4.328;2022-10-16T01:37:40;13.90;99.90
25716;DHT22;13573;50.936;4.328;2022-10-16T01:42:41;14.20;99.90
25716;DHT22;13573;50.936;4.328;2022-10-16T01:45:12;13.70;99.90
25716;DHT22;13573;50.936;4.328;2022-10-16T01:47:41;13.70;99.90
25716;DHT22;13573;50.936;4.328;2022-10-16T01:50:13;14.00;99.90
25716;DHT22;13573;50.936;4.328;2022-10-16T01:52:43;13.90;99.90
25716;DHT22;13573;50.936;4.328;2022-10-16T01:55:16;14.00;99.90
25716;DHT22;13573;50.936;4.328;2022-10-16T02:02:44;14.10;99.90
25716;DHT22;13573;50.936;4.328;2022-10-16T02:05:16;14.50;99.90
25716;DHT22;13573;50.936;4.328;2022-10-16T02:12:42;13.60;99.90
25716;DHT22;13573;50.936;4.328;2022-10-16T02:15:13;13.60;99.90
25716;DHT22;13573;50.936;4.328;2022-10-16T02:20:09;13.90;99.90
25716;DHT22;13573;50.936;4.328;2022-10-16T02:25:15;13.80;99.90
25716;DHT22;13573;50.936;4.328;2022-10-16T02:30:25;13.90;99.90
25716;DHT22;13573;50.936;4.328;2022-10-16T02:32:57;14.80;99.90
25716;DHT22;13573;50.936;4.328;2022-10-16T02:37:55;14.10;99.90
25716;DHT22;13573;50.936;4.328;2022-10-16T02:42:52;13.70;99.90
25716;DHT22;13573;50.936;4.328;2022-10-16T02:45:20;14.10;99.90
25716;DHT22;13573;50.936;4.328;2022-10-16T02:52:44;14.20;99.90
25716;DHT22;13573;50.936;4.328;2022-10-16T03:02:35;14.00;99.90
25716;DHT22;13573;50.936;4.328;2022-10-16T03:05:04;14.10;99.90
25716;DHT22;13573;50.936;4.328;2022-10-16T03:07:31;14.30;99.90
25716;DHT22;13573;50.936;4.328;2022-10-16T03:14:55;13.90;99.90
25716;DHT22;13573;50.936;4.328;2022-10-16T03:17:24;13.80;99.90
25716;DHT22;13573;50.936;4.328;2022-10-16T03:19:52;13.80;99.90
25716;DHT22;13573;50.936;4.328;2022-10-16T03:22:18;12.60;99.90
25716;DHT22;13573;50.936;4.328;2022-10-16T03:29:38;14.10;99.90
25716;DHT22;13573;50.936;4.328;2022-10-16T03:32:05;14.00;99.90
25716;DHT22;13573;50.936;4.328;2022-10-16T03:34:34;12.90;99.90
25716;DHT22;13573;50.936;4.328;2022-10-16T03:49:24;14.00;99.90
25716;DHT22;13573;50.936;4.328;2022-10-16T03:54:17;13.80;99.90
25716;DHT22;13573;50.936;4.328;2022-10-16T03:56:46;13.90;99.90
25716;DHT22;13573;50.936;4.328;2022-10-16T03:59:15;13.50;99.90
25716;DHT22;13573;50.936;4.328;2022-10-16T04:01:43;13.70;99.90
25716;DHT22;13573;50.936;4.328;2022-10-16T04:06:37;14.30;99.90
25716;DHT22;13573;50.936;4.328;2022-10-16T04:09:03;14.10;99.90
25716;DHT22;13573;50.936;4.328;2022-10-16T04:13:58;15.70;99.90
25716;DHT22;13573;50.936;4.328;2022-10-16T04:16:26;15.00;99.90
25716;DHT22;13573;50.936;4.328;2022-10-16T04:18:54;14.00;99.90
25716;DHT22;13573;50.936;4.328;2022-10-16T04:26:17;13.70;99.90
25716;DHT22;13573;50.936;4.328;2022-10-16T04:31:12;13.60;99.90
25716;DHT22;13573;50.936;4.328;2022-10-16T04:38:37;13.80;99.90
25716;DHT22;13573;50.936;4.328;2022-10-16T04:43:34;13.90;99.90
25716;DHT22;13573;50.936;4.328;2022-10-16T04:46:02;13.50;99.90
25716;DHT22;13573;50.936;4.328;2022-10-16T04:48:31;14.00;99.90
25716;DHT22;13573;50.936;4.328;2022-10-16T04:50:59;13.80;99.90
25716;DHT22;13573;50.936;4.328;2022-10-16T04:53:27;13.80;99.90
25716;DHT22;13573;50.936;4.328;2022-10-16T04:55:53;13.60;99.90
25716;DHT22;13573;50.936;4.328;2022-10-16T05:00:51;13.90;99.90
25716;DHT22;13573;50.936;4.328;2022-10-16T05:10:45;13.20;99.90
25716;DHT22;13573;50.936;4.328;2022-10-16T05:13:12;13.40;99.90
25716;DHT22;13573;50.936;4.328;2022-10-16T05:18:08;13.40;99.90
25716;DHT22;13573;50.936;4.328;2022-10-16T05:20:34;13.50;99.90
25716;DHT22;13573;50.936;4.328;2022-10-16T05:23:03;13.40;99.90
25716;DHT22;13573;50.936;4.328;2022-10-16T05:25:30;13.20;99.90
25716;DHT22;13573;50.936;4.328;2022-10-16T05:32:53;13.20;99.90
25716;DHT22;13573;50.936;4.328;2022-10-16T05:40:16;13.60;99.90
25716;DHT22;13573;50.936;4.328;2022-10-16T05:42:42;13.30;99.90
25716;DHT22;13573;50.936;4.328;2022-10-16T05:47:37;13.60;99.90
25716;DHT22;13573;50.936;4.328;2022-10-16T05:50:05;13.50;99.90
25716;DHT22;13573;50.936;4.328;2022-10-16T05:52:33;13.30;99.90
25716;DHT22;13573;50.936;4.328;2022-10-16T05:54:59;13.30;99.90
25716;DHT22;13573;50.936;4.328;2022-10-16T05:57:27;13.20;99.90
25716;DHT22;13573;50.936;4.328;2022-10-16T05:59:54;14.50;99.90
25716;DHT22;13573;50.936;4.328;2022-10-16T06:02:21;13.50;99.90
25716;DHT22;13573;50.936;4.328;2022-10-16T06:04:48;13.60;99.90
25716;DHT22;13573;50.936;4.328;2022-10-16T06:07:15;13.30;99.90
25716;DHT22;13573;50.936;4.328;2022-10-16T06:09:41;13.80;99.90
25716;DHT22;13573;50.936;4.328;2022-10-16T06:12:09;13.70;99.90
25716;DHT22;13573;50.936;4.328;2022-10-16T06:14:35;13.30;99.90
25716;DHT22;13573;50.936;4.328;2022-10-16T06:17:03;13.10;99.90
25716;DHT22;13573;50.936;4.328;2022-10-16T06:19:31;13.80;99.90
25716;DHT22;13573;50.936;4.328;2022-10-16T06:24:28;13.70;99.90
25716;DHT22;13573;50.936;4.328;2022-10-16T06:26:55;13.80;99.90
25716;DHT22;13573;50.936;4.328;2022-10-16T06:29:24;14.00;99.90
25716;DHT22;13573;50.936;4.328;2022-10-16T06:31:51;14.00;99.90
25716;DHT22;13573;50.936;4.328;2022-10-16T06:34:19;14.00;99.90
25716;DHT22;13573;50.936;4.328;2022-10-16T06:39:14;14.00;99.90
25716;DHT22;13573;50.936;4.328;2022-10-16T06:41:41;14.30;99.90
25716;DHT22;13573;50.936;4.328;2022-10-16T06:44:09;14.20;99.90
25716;DHT22;13573;50.936;4.328;2022-10-16T06:46:36;14.80;99.90
25716;DHT22;13573;50.936;4.328;2022-10-16T06:49:05;14.70;99.90
25716;DHT22;13573;50.936;4.328;2022-10-16T06:51:32;15.70;99.90
25716;DHT22;13573;50.936;4.328;2022-10-16T06:54:02;16.30;99.90
25716;DHT22;13573;50.936;4.328;2022-10-16T06:56:30;16.00;99.90
25716;DHT22;13573;50.936;4.328;2022-10-16T06:58:57;15.80;99.90
25716;DHT22;13573;50.936;4.328;2022-10-16T07:03:53;15.90;99.90
25716;DHT22;13573;50.936;4.328;2022-10-16T07:06:23;15.50;99.90
25716;DHT22;13573;50.936;4.328;2022-10-16T07:08:52;15.30;99.90
25716;DHT22;13573;50.936;4.328;2022-10-16T07:11:21;15.50;99.90
25716;DHT22;13573;50.936;4.328;2022-10-16T07:13:49;16.80;99.90
25716;DHT22;13573;50.936;4.328;2022-10-16T07:16:19;17.10;99.90
25716;DHT22;13573;50.936;4.328;2022-10-16T07:18:46;17.70;99.90
25716;DHT22;13573;50.936;4.328;2022-10-16T07:21:17;18.40;99.90
25716;DHT22;13573;50.936;4.328;2022-10-16T07:23:45;18.80;99.90
25716;DHT22;13573;50.936;4.328;2022-10-16T07:26:12;18.70;99.90
25716;DHT22;13573;50.936;4.328;2022-10-16T07:28:39;19.20;99.90
25716;DHT22;13573;50.936;4.328;2022-10-16T07:31:10;19.30;99.90
25716;DHT22;13573;50.936;4.328;2022-10-16T07:33:38;19.10;99.90
25716;DHT22;13573;50.936;4.328;2022-10-16T07:36:05;19.30;99.90
25716;DHT22;13573;50.936;4.328;2022-10-16T07:38:35;19.40;99.90
25716;DHT22;13573;50.936;4.328;2022-10-16T07:41:06;17.70;99.90
25716;DHT22;13573;50.936;4.328;2022-10-16T07:43:34;19.40;99.90
25716;DHT22;13573;50.936;4.328;2022-10-16T07:48:29;19.40;99.90
25716;DHT22;13573;50.936;4.328;2022-10-16T07:51:02;19.40;99.90
25716;DHT22;13573;50.936;4.328;2022-10-16T07:53:30;19.60;99.90
25716;DHT22;13573;50.936;4.328;2022-10-16T07:55:58;19.80;99.90
25716;DHT22;13573;50.936;4.328;2022-10-16T08:00:54;19.70;99.90
25716;DHT22;13573;50.936;4.328;2022-10-16T08:03:22;19.90;99.90
25716;DHT22;13573;50.936;4.328;2022-10-16T08:05:49;20.10;99.90
25716;DHT22;13573;50.936;4.328;2022-10-16T08:08:17;20.10;99.90
25716;DHT22;13573;50.936;4.328;2022-10-16T08:10:45;20.70;99.90
25716;DHT22;13573;50.936;4.328;2022-10-16T08:13:11;20.70;99.90
25716;DHT22;13573;50.936;4.328;2022-10-16T08:15:43;20.70;99.90
25716;DHT22;13573;50.936;4.328;2022-10-16T08:18:12;21.00;99.90
25716;DHT22;13573;50.936;4.328;2022-10-16T08:20:43;20.80;99.90
25716;DHT22;13573;50.936;4.328;2022-10-16T08:23:12;20.60;99.90
25716;DHT22;13573;50.936;4.328;2022-10-16T08:25:40;21.00;99.90
25716;DHT22;13573;50.936;4.328;2022-10-16T08:28:08;22.00;99.90
25716;DHT22;13573;50.936;4.328;2022-10-16T08:30:36;21.90;99.90
25716;DHT22;13573;50.936;4.328;2022-10-16T08:33:03;21.80;99.90
25716;DHT22;13573;50.936;4.328;2022-10-16T08:35:29;21.50;99.90
25716;DHT22;13573;50.936;4.328;2022-10-16T08:37:56;22.00;99.90
25716;DHT22;13573;50.936;4.328;2022-10-16T08:40:25;21.60;99.90
25716;DHT22;13573;50.936;4.328;2022-10-16T08:48:20;22.50;99.90
25716;DHT22;13573;50.936;4.328;2022-10-16T08:50:52;22.20;99.90
25716;DHT22;13573;50.936;4.328;2022-10-16T08:53:26;22.50;99.90
25716;DHT22;13573;50.936;4.328;2022-10-16T08:55:54;20.80;99.90
25716;DHT22;13573;50.936;4.328;2022-10-16T08:58:27;22.80;99.90
25716;DHT22;13573;50.936;4.328;2022-10-16T09:01:00;22.80;99.90
25716;DHT22;13573;50.936;4.328;2022-10-16T09:10:00;23.40;99.90
25716;DHT22;13573;50.936;4.328;2022-10-16T09:12:28;23.20;99.90
25716;DHT22;13573;50.936;4.328;2022-10-16T09:15:26;23.40;99.90
25716;DHT22;13573;50.936;4.328;2022-10-16T09:18:00;21.80;99.90
25716;DHT22;13573;50.936;4.328;2022-10-16T09:23:25;24.40;99.90
25716;DHT22;13573;50.936;4.328;2022-10-16T09:25:51;24.60;99.90
25716;DHT22;13573;50.936;4.328;2022-10-16T09:28:19;22.60;99.90
25716;DHT22;13573;50.936;4.328;2022-10-16T09:30:46;24.10;99.90
25716;DHT22;13573;50.936;4.328;2022-10-16T09:33:19;25.40;99.90
25716;DHT22;13573;50.936;4.328;2022-10-16T09:35:50;25.00;99.90
25716;DHT22;13573;50.936;4.328;2022-10-16T09:38:26;24.00;99.90
25716;DHT22;13573;50.936;4.328;2022-10-16T09:41:01;23.70;99.90
25716;DHT22;13573;50.936;4.328;2022-10-16T09:43:34;24.50;99.90
25716;DHT22;13573;50.936;4.328;2022-10-16T09:46:04;25.30;99.90
25716;DHT22;13573;50.936;4.328;2022-10-16T09:48:42;25.40;99.90
25716;DHT22;13573;50.936;4.328;2022-10-16T09:51:22;25.70;99.90
25716;DHT22;13573;50.936;4.328;2022-10-16T09:53:55;25.60;99.90
25716;DHT22;13573;50.936;4.328;2022-10-16T09:56:29;26.10;99.90
25716;DHT22;13573;50.936;4.328;2022-10-16T09:59:03;26.40;99.90
25716;DHT22;13573;50.936;4.328;2022-10-16T10:01:35;27.00;99.90
25716;DHT22;13573;50.936;4.328;2022-10-16T10:04:01;26.70;99.90
25716;DHT22;13573;50.936;4.328;2022-10-16T10:06:32;27.10;99.90
25716;DHT22;13573;50.936;4.328;2022-10-16T10:11:44;27.10;99.90
25716;DHT22;13573;50.936;4.328;2022-10-16T10:20:18;27.30;99.90
25716;DHT22;13573;50.936;4.328;2022-10-16T10:22:42;26.10;99.90
25716;DHT22;13573;50.936;4.328;2022-10-16T10:25:36;26.50;99.90
25716;DHT22;13573;50.936;4.328;2022-10-16T10:28:23;27.10;99.90
25716;DHT22;13573;50.936;4.328;2022-10-16T10:31:13;27.20;99.90
25716;DHT22;13573;50.936;4.328;2022-10-16T10:33:58;28.40;99.90
25716;DHT22;13573;50.936;4.328;2022-10-16T10:36:41;28.60;99.90
25716;DHT22;13573;50.936;4.328;2022-10-16T10:39:16;29.10;99.90
25716;DHT22;13573;50.936;4.328;2022-10-16T10:42:00;28.40;99.90
25716;DHT22;13573;50.936;4.328;2022-10-16T10:47:37;27.50;99.90
25716;DHT22;13573;50.936;4.328;2022-10-16T10:50:23;26.90;99.90
25716;DHT22;13573;50.936;4.328;2022-10-16T10:52:58;27.00;99.90
25716;DHT22;13573;50.936;4.328;2022-10-16T10:58:19;26.10;99.90
25716;DHT22;13573;50.936;4.328;2022-10-16T11:00:54;25.30;99.90
25716;DHT22;13573;50.936;4.328;2022-10-16T11:06:11;28.70;99.90
25716;DHT22;13573;50.936;4.328;2022-10-16T11:11:23;29.00;99.90
25716;DHT22;13573;50.936;4.328;2022-10-16T11:14:02;29.50;99.90
25716;DHT22;13573;50.936;4.328;2022-10-16T11:16:37;29.60;99.90
25716;DHT22;13573;50.936;4.328;2022-10-16T11:24:42;30.20;99.90
25716;DHT22;13573;50.936;4.328;2022-10-16T11:27:07;30.60;99.90
25716;DHT22;13573;50.936;4.328;2022-10-16T11:29:41;29.90;99.90
25716;DHT22;13573;50.936;4.328;2022-10-16T11:32:14;29.50;99.90
25716;DHT22;13573;50.936;4.328;2022-10-16T11:34:47;30.00;99.90
25716;DHT22;13573;50.936;4.328;2022-10-16T11:37:20;30.10;99.90
25716;DHT22;13573;50.936;4.328;2022-10-16T11:39:50;29.70;99.90
25716;DHT22;13573;50.936;4.328;2022-10-16T11:42:22;30.30;99.90
25716;DHT22;13573;50.936;4.328;2022-10-16T11:47:44;30.30;99.90
25716;DHT22;13573;50.936;4.328;2022-10-16T11:50:25;30.60;99.90
25716;DHT22;13573;50.936;4.328;2022-10-16T11:53:01;31.10;99.90
25716;DHT22;13573;50.936;4.328;2022-10-16T11:55:31;30.80;99.90
25716;DHT22;13573;50.936;4.328;2022-10-16T11:58:06;30.10;99.90
25716;DHT22;13573;50.936;4.328;2022-10-16T12:00:38;28.70;99.90
25716;DHT22;13573;50.936;4.328;2022-10-16T12:03:17;28.70;99.90
25716;DHT22;13573;50.936;4.328;2022-10-16T12:06:09;28.70;99.90
25716;DHT22;13573;50.936;4.328;2022-10-16T12:11:20;26.30;99.90
25716;DHT22;13573;50.936;4.328;2022-10-16T12:16:24;25.30;99.90
25716;DHT22;13573;50.936;4.328;2022-10-16T12:19:13;26.40;99.90
25716;DHT22;13573;50.936;4.328;2022-10-16T12:21:45;27.50;99.90
25716;DHT22;13573;50.936;4.328;2022-10-16T12:24:21;28.60;99.90
25716;DHT22;13573;50.936;4.328;2022-10-16T12:26:52;27.50;99.90
25716;DHT22;13573;50.936;4.328;2022-10-16T12:29:43;27.30;99.90
25716;DHT22;13573;50.936;4.328;2022-10-16T12:32:29;26.70;99.90
25716;DHT22;13573;50.936;4.328;2022-10-16T12:34:59;24.90;99.90
25716;DHT22;13573;50.936;4.328;2022-10-16T12:37:33;25.50;99.90
25716;DHT22;13573;50.936;4.328;2022-10-16T12:40:13;24.70;99.90
25716;DHT22;13573;50.936;4.328;2022-10-16T12:42:43;24.80;99.90
25716;DHT22;13573;50.936;4.328;2022-10-16T12:47:52;24.50;99.90
25716;DHT22;13573;50.936;4.328;2022-10-16T12:50:30;24.00;99.90
25716;DHT22;13573;50.936;4.328;2022-10-16T12:55:24;23.90;99.90
25716;DHT22;13573;50.936;4.328;2022-10-16T12:58:09;23.40;99.90
25716;DHT22;13573;50.936;4.328;2022-10-16T13:00:45;23.70;99.90
25716;DHT22;13573;50.936;4.328;2022-10-16T13:09:13;23.50;99.90
25716;DHT22;13573;50.936;4.328;2022-10-16T13:14:59;23.70;99.90
25716;DHT22;13573;50.936;4.328;2022-10-16T13:17:37;23.80;99.90
25716;DHT22;13573;50.936;4.328;2022-10-16T13:20:12;23.50;99.90
25716;DHT22;13573;50.936;4.328;2022-10-16T13:22:47;23.80;99.90
25716;DHT22;13573;50.936;4.328;2022-10-16T13:25:28;22.50;99.90
25716;DHT22;13573;50.936;4.328;2022-10-16T13:28:01;22.40;99.90
25716;DHT22;13573;50.936;4.328;2022-10-16T13:30:34;23.50;99.90
25716;DHT22;13573;50.936;4.328;2022-10-16T13:33:04;23.70;99.90
25716;DHT22;13573;50.936;4.328;2022-10-16T13:35:35;22.10;99.90
25716;DHT22;13573;50.936;4.328;2022-10-16T13:38:18;22.30;99.90
25716;DHT22;13573;50.936;4.328;2022-10-16T13:40:56;23.90;99.90
25716;DHT22;13573;50.936;4.328;2022-10-16T13:43:31;22.70;99.90
25716;DHT22;13573;50.936;4.328;2022-10-16T13:46:17;21.20;99.90
25716;DHT22;13573;50.936;4.328;2022-10-16T13:51:17;20.70;99.90
25716;DHT22;13573;50.936;4.328;2022-10-16T13:56:17;22.70;99.90
25716;DHT22;13573;50.936;4.328;2022-10-16T13:58:45;22.80;99.90
25716;DHT22;13573;50.936;4.328;2022-10-16T14:01:22;22.70;99.90
25716;DHT22;13573;50.936;4.328;2022-10-16T14:03:50;22.70;99.90
25716;DHT22;13573;50.936;4.328;2022-10-16T14:06:20;22.10;99.90
25716;DHT22;13573;50.936;4.328;2022-10-16T14:08:54;23.20;99.90
25716;DHT22;13573;50.936;4.328;2022-10-16T14:11:22;21.00;99.90
25716;DHT22;13573;50.936;4.328;2022-10-16T14:13:50;22.40;99.90
25716;DHT22;13573;50.936;4.328;2022-10-16T14:16:23;21.40;99.90
25716;DHT22;13573;50.936;4.328;2022-10-16T14:18:57;23.20;99.90
25716;DHT22;13573;50.936;4.328;2022-10-16T14:21:24;21.60;99.90
25716;DHT22;13573;50.936;4.328;2022-10-16T14:26:28;20.70;99.90
25716;DHT22;13573;50.936;4.328;2022-10-16T14:29:17;22.50;99.90
25716;DHT22;13573;50.936;4.328;2022-10-16T14:34:30;20.50;99.90
25716;DHT22;13573;50.936;4.328;2022-10-16T14:39:33;22.50;99.90
25716;DHT22;13573;50.936;4.328;2022-10-16T14:42:01;22.20;99.90
25716;DHT22;13573;50.936;4.328;2022-10-16T14:44:32;22.70;99.90
25716;DHT22;13573;50.936;4.328;2022-10-16T14:47:06;20.80;99.90
25716;DHT22;13573;50.936;4.328;2022-10-16T14:52:01;21.90;99.90
25716;DHT22;13573;50.936;4.328;2022-10-16T14:54:28;21.60;99.90
25716;DHT22;13573;50.936;4.328;2022-10-16T14:56:58;21.00;99.90
25716;DHT22;13573;50.936;4.328;2022-10-16T14:59:28;21.70;99.90
25716;DHT22;13573;50.936;4.328;2022-10-16T15:01:57;21.50;99.90
25716;DHT22;13573;50.936;4.328;2022-10-16T15:04:24;21.40;99.90
25716;DHT22;13573;50.936;4.328;2022-10-16T15:06:51;21.30;99.90
25716;DHT22;13573;50.936;4.328;2022-10-16T15:09:17;20.80;99.90
25716;DHT22;13573;50.936;4.328;2022-10-16T15:11:46;20.70;99.90
25716;DHT22;13573;50.936;4.328;2022-10-16T15:14:14;20.80;99.90
25716;DHT22;13573;50.936;4.328;2022-10-16T15:24:12;20.90;99.90
25716;DHT22;13573;50.936;4.328;2022-10-16T15:26:39;21.00;99.90
25716;DHT22;13573;50.936;4.328;2022-10-16T15:29:07;21.50;99.90
25716;DHT22;13573;50.936;4.328;2022-10-16T15:31:35;19.40;99.90
25716;DHT22;13573;50.936;4.328;2022-10-16T15:34:04;20.60;99.90
25716;DHT22;13573;50.936;4.328;2022-10-16T15:39:03;19.00;99.90
25716;DHT22;13573;50.936;4.328;2022-10-16T15:43:58;20.60;99.90
25716;DHT22;13573;50.936;4.328;2022-10-16T15:46:26;20.20;99.90
25716;DHT22;13573;50.936;4.328;2022-10-16T15:48:57;20.50;99.90
25716;DHT22;13573;50.936;4.328;2022-10-16T15:51:26;20.10;99.90
25716;DHT22;13573;50.936;4.328;2022-10-16T15:53:56;20.10;99.90
25716;DHT22;13573;50.936;4.328;2022-10-16T15:56:24;19.90;99.90
25716;DHT22;13573;50.936;4.328;2022-10-16T15:58:52;20.20;99.90
25716;DHT22;13573;50.936;4.328;2022-10-16T16:01:20;20.20;99.90
25716;DHT22;13573;50.936;4.328;2022-10-16T16:03:47;20.10;99.90
25716;DHT22;13573;50.936;4.328;2022-10-16T16:06:14;19.40;99.90
25716;DHT22;13573;50.936;4.328;2022-10-16T16:08:42;19.60;99.90
25716;DHT22;13573;50.936;4.328;2022-10-16T16:11:11;19.20;99.90
25716;DHT22;13573;50.936;4.328;2022-10-16T16:13:42;19.40;99.90
25716;DHT22;13573;50.936;4.328;2022-10-16T16:16:10;19.70;99.90
25716;DHT22;13573;50.936;4.328;2022-10-16T16:18:38;19.50;99.90
25716;DHT22;13573;50.936;4.328;2022-10-16T16:21:10;19.70;99.90
25716;DHT22;13573;50.936;4.328;2022-10-16T16:23:37;19.30;99.90
25716;DHT22;13573;50.936;4.328;2022-10-16T16:28:39;18.40;99.90
25716;DHT22;13573;50.936;4.328;2022-10-16T16:31:07;19.30;99.90
25716;DHT22;13573;50.936;4.328;2022-10-16T16:33:35;19.00;99.90
25716;DHT22;13573;50.936;4.328;2022-10-16T16:36:03;19.20;99.90
25716;DHT22;13573;50.936;4.328;2022-10-16T16:38:33;19.50;99.90
25716;DHT22;13573;50.936;4.328;2022-10-16T16:43:37;19.70;99.90
25716;DHT22;13573;50.936;4.328;2022-10-16T16:46:06;19.50;99.90
25716;DHT22;13573;50.936;4.328;2022-10-16T16:48:34;19.70;99.90
25716;DHT22;13573;50.936;4.328;2022-10-16T16:51:04;19.20;99.90
25716;DHT22;13573;50.936;4.328;2022-10-16T16:53:36;19.40;99.90
25716;DHT22;13573;50.936;4.328;2022-10-16T16:56:04;19.40;99.90
25716;DHT22;13573;50.936;4.328;2022-10-16T16:58:33;19.30;99.90
25716;DHT22;13573;50.936;4.328;2022-10-16T17:01:01;19.20;99.90
25716;DHT22;13573;50.936;4.328;2022-10-16T17:03:30;19.40;99.90
25716;DHT22;13573;50.936;4.328;2022-10-16T17:08:26;19.70;99.90
25716;DHT22;13573;50.936;4.328;2022-10-16T17:10:56;19.50;99.90
25716;DHT22;13573;50.936;4.328;2022-10-16T17:13:25;19.00;99.90
25716;DHT22;13573;50.936;4.328;2022-10-16T17:18:22;18.80;99.90
25716;DHT22;13573;50.936;4.328;2022-10-16T17:20:49;18.40;99.90
25716;DHT22;13573;50.936;4.328;2022-10-16T17:23:17;17.90;99.90
25716;DHT22;13573;50.936;4.328;2022-10-16T17:25:44;18.10;99.90
25716;DHT22;13573;50.936;4.328;2022-10-16T17:28:12;17.40;99.90
25716;DHT22;13573;50.936;4.328;2022-10-16T17:30:42;17.30;99.90
25716;DHT22;13573;50.936;4.328;2022-10-16T17:33:11;17.20;99.90
25716;DHT22;13573;50.936;4.328;2022-10-16T17:35:40;16.30;99.90
25716;DHT22;13573;50.936;4.328;2022-10-16T17:38:09;16.90;99.90
25716;DHT22;13573;50.936;4.328;2022-10-16T17:40:36;16.80;99.90
25716;DHT22;13573;50.936;4.328;2022-10-16T17:43:06;16.60;99.90
25716;DHT22;13573;50.936;4.328;2022-10-16T17:45:35;16.80;99.90
25716;DHT22;13573;50.936;4.328;2022-10-16T17:48:03;16.80;99.90
25716;DHT22;13573;50.936;4.328;2022-10-16T17:50:31;16.60;99.90
25716;DHT22;13573;50.936;4.328;2022-10-16T17:52:58;16.50;99.90
25716;DHT22;13573;50.936;4.328;2022-10-16T17:55:24;16.80;99.90
25716;DHT22;13573;50.936;4.328;2022-10-16T18:02:48;15.20;99.90
25716;DHT22;13573;50.936;4.328;2022-10-16T18:05:18;16.40;99.90
25716;DHT22;13573;50.936;4.328;2022-10-16T18:10:14;16.50;99.90
25716;DHT22;13573;50.936;4.328;2022-10-16T18:17:38;16.20;99.90
25716;DHT22;13573;50.936;4.328;2022-10-16T18:20:07;16.50;99.90
25716;DHT22;13573;50.936;4.328;2022-10-16T18:22:35;16.90;99.90
25716;DHT22;13573;50.936;4.328;2022-10-16T18:25:04;16.80;99.90
25716;DHT22;13573;50.936;4.328;2022-10-16T18:27:33;16.50;99.90
25716;DHT22;13573;50.936;4.328;2022-10-16T18:30:01;16.80;99.90
25716;DHT22;13573;50.936;4.328;2022-10-16T18:32:29;16.40;99.90
25716;DHT22;13573;50.936;4.328;2022-10-16T18:34:57;14.90;99.90
25716;DHT22;13573;50.936;4.328;2022-10-16T18:37:24;16.20;99.90
25716;DHT22;13573;50.936;4.328;2022-10-16T18:42:18;16.70;99.90
25716;DHT22;13573;50.936;4.328;2022-10-16T18:44:46;16.40;99.90
25716;DHT22;13573;50.936;4.328;2022-10-16T18:47:12;16.40;99.90
25716;DHT22;13573;50.936;4.328;2022-10-16T18:49:39;16.90;99.90
25716;DHT22;13573;50.936;4.328;2022-10-16T18:52:06;16.90;99.90
25716;DHT22;13573;50.936;4.328;2022-10-16T18:54:36;15.40;99.90
25716;DHT22;13573;50.936;4.328;2022-10-16T18:57:03;16.20;99.90
25716;DHT22;13573;50.936;4.328;2022-10-16T18:59:31;16.30;99.90
25716;DHT22;13573;50.936;4.328;2022-10-16T19:04:26;16.70;99.90
25716;DHT22;13573;50.936;4.328;2022-10-16T19:06:54;16.00;99.90
25716;DHT22;13573;50.936;4.328;2022-10-16T19:11:51;16.20;99.90
25716;DHT22;13573;50.936;4.328;2022-10-16T19:14:19;14.70;99.90
25716;DHT22;13573;50.936;4.328;2022-10-16T19:16:46;16.10;99.90
25716;DHT22;13573;50.936;4.328;2022-10-16T19:19:17;16.30;99.90
25716;DHT22;13573;50.936;4.328;2022-10-16T19:21:44;15.80;99.90
25716;DHT22;13573;50.936;4.328;2022-10-16T19:26:43;15.80;99.90
25716;DHT22;13573;50.936;4.328;2022-10-16T19:29:11;16.30;99.90
25716;DHT22;13573;50.936;4.328;2022-10-16T19:34:06;15.30;99.90
25716;DHT22;13573;50.936;4.328;2022-10-16T19:36:37;17.30;99.90
25716;DHT22;13573;50.936;4.328;2022-10-16T19:39:09;16.00;99.90
25716;DHT22;13573;50.936;4.328;2022-10-16T19:41:36;16.00;99.90
25716;DHT22;13573;50.936;4.328;2022-10-16T19:44:05;15.90;99.90
25716;DHT22;13573;50.936;4.328;2022-10-16T19:46:34;15.90;99.90
25716;DHT22;13573;50.936;4.328;2022-10-16T19:49:06;15.60;99.90
25716;DHT22;13573;50.936;4.328;2022-10-16T19:51:34;16.10;99.90
25716;DHT22;13573;50.936;4.328;2022-10-16T19:54:03;15.80;99.90
25716;DHT22;13573;50.936;4.328;2022-10-16T19:56:32;15.90;99.90
25716;DHT22;13573;50.936;4.328;2022-10-16T19:59:01;15.00;99.90
25716;DHT22;13573;50.936;4.328;2022-10-16T20:03:58;15.40;99.90
25716;DHT22;13573;50.936;4.328;2022-10-16T20:06:26;15.60;99.90
25716;DHT22;13573;50.936;4.328;2022-10-16T20:08:53;16.20;99.90
25716;DHT22;13573;50.936;4.328;2022-10-16T20:13:49;16.10;99.90
25716;DHT22;13573;50.936;4.328;2022-10-16T20:16:16;15.30;99.90
25716;DHT22;13573;50.936;4.328;2022-10-16T20:18:45;15.70;99.90
25716;DHT22;13573;50.936;4.328;2022-10-16T20:21:19;15.00;99.90
25716;DHT22;13573;50.936;4.328;2022-10-16T20:23:46;15.90;99.90
25716;DHT22;13573;50.936;4.328;2022-10-16T20:26:15;15.90;99.90
25716;DHT22;13573;50.936;4.328;2022-10-16T20:28:43;15.90;99.90
25716;DHT22;13573;50.936;4.328;2022-10-16T20:33:40;15.80;99.90
25716;DHT22;13573;50.936;4.328;2022-10-16T20:38:36;15.80;99.90